sensor_id;sensor_type;location;lat;lon;timestamp;temperature;humidity
45213;DHT22;35816;44.498;0.166;2022-07-10T00:00:58;21.50;62.80
45213;DHT22;35816;44.498;0.166;2022-07-10T00:03:24;21.40;63.00
45213;DHT22;35816;44.498;0.166;2022-07-10T00:05:49;21.40;63.40
45213;DHT22;35816;44.498;0.166;2022-07-10T00:08:15;21.40;64.00
45213;DHT22;35816;44.498;0.166;2022-07-10T00:10:41;21.40;63.60
45213;DHT22;35816;44.498;0.166;2022-07-10T00:13:06;21.40;63.50
45213;DHT22;35816;44.498;0.166;2022-07-10T00:15:32;21.40;63.20
45213;DHT22;35816;44.498;0.166;2022-07-10T00:17:58;21.40;63.20
45213;DHT22;35816;44.498;0.166;2022-07-10T00:20:25;21.40;63.50
45213;DHT22;35816;44.498;0.166;2022-07-10T00:22:52;21.40;63.70
45213;DHT22;35816;44.498;0.166;2022-07-10T00:25:18;21.40;63.60
45213;DHT22;35816;44.498;0.166;2022-07-10T00:27:49;21.40;63.70
45213;DHT22;35816;44.498;0.166;2022-07-10T00:30:15;21.40;63.60
45213;DHT22;35816;44.498;0.166;2022-07-10T00:32:40;21.40;63.60
45213;DHT22;35816;44.498;0.166;2022-07-10T00:35:06;21.40;63.40
45213;DHT22;35816;44.498;0.166;2022-07-10T00:37:32;21.50;63.30
45213;DHT22;35816;44.498;0.166;2022-07-10T00:39:58;21.40;63.20
45213;DHT22;35816;44.498;0.166;2022-07-10T00:42:25;21.40;63.60
45213;DHT22;35816;44.498;0.166;2022-07-10T00:44:50;21.40;63.80
45213;DHT22;35816;44.498;0.166;2022-07-10T00:47:16;21.30;64.00
45213;DHT22;35816;44.498;0.166;2022-07-10T00:49:45;21.30;64.00
45213;DHT22;35816;44.498;0.166;2022-07-10T00:52:11;21.20;64.80
45213;DHT22;35816;44.498;0.166;2022-07-10T00:54:37;21.10;64.90
45213;DHT22;35816;44.498;0.166;2022-07-10T00:57:04;21.00;64.80
45213;DHT22;35816;44.498;0.166;2022-07-10T00:59:32;21.00;65.20
45213;DHT22;35816;44.498;0.166;2022-07-10T01:01:57;21.00;65.40
45213;DHT22;35816;44.498;0.166;2022-07-10T01:04:23;20.90;66.00
45213;DHT22;35816;44.498;0.166;2022-07-10T01:06:49;20.90;65.70
45213;DHT22;35816;44.498;0.166;2022-07-10T01:09:15;20.90;66.10
45213;DHT22;35816;44.498;0.166;2022-07-10T01:11:41;20.80;66.30
45213;DHT22;35816;44.498;0.166;2022-07-10T01:14:06;20.70;66.60
45213;DHT22;35816;44.498;0.166;2022-07-10T01:16:32;20.70;67.60
45213;DHT22;35816;44.498;0.166;2022-07-10T01:18:58;20.60;68.30
45213;DHT22;35816;44.498;0.166;2022-07-10T01:24:16;20.40;69.70
45213;DHT22;35816;44.498;0.166;2022-07-10T01:26:42;20.30;70.30
45213;DHT22;35816;44.498;0.166;2022-07-10T01:29:10;20.20;69.70
45213;DHT22;35816;44.498;0.166;2022-07-10T01:31:36;20.20;69.80
45213;DHT22;35816;44.498;0.166;2022-07-10T01:34:04;20.20;70.10
45213;DHT22;35816;44.498;0.166;2022-07-10T01:36:30;20.10;70.30
45213;DHT22;35816;44.498;0.166;2022-07-10T01:38:56;20.10;71.20
45213;DHT22;35816;44.498;0.166;2022-07-10T01:41:35;20.00;71.40
45213;DHT22;35816;44.498;0.166;2022-07-10T01:44:01;20.10;72.60
45213;DHT22;35816;44.498;0.166;2022-07-10T01:46:26;20.00;72.30
45213;DHT22;35816;44.498;0.166;2022-07-10T01:48:52;19.90;72.50
45213;DHT22;35816;44.498;0.166;2022-07-10T01:51:19;19.90;72.90
45213;DHT22;35816;44.498;0.166;2022-07-10T01:53:44;19.80;73.20
45213;DHT22;35816;44.498;0.166;2022-07-10T01:56:11;19.80;73.70
45213;DHT22;35816;44.498;0.166;2022-07-10T01:58:37;19.80;73.60
45213;DHT22;35816;44.498;0.166;2022-07-10T02:01:03;19.70;74.00
45213;DHT22;35816;44.498;0.166;2022-07-10T02:03:29;19.70;74.00
45213;DHT22;35816;44.498;0.166;2022-07-10T02:06:14;19.70;74.00
45213;DHT22;35816;44.498;0.166;2022-07-10T02:08:39;19.70;74.00
45213;DHT22;35816;44.498;0.166;2022-07-10T02:11:05;19.70;73.90
45213;DHT22;35816;44.498;0.166;2022-07-10T02:13:31;19.70;74.90
45213;DHT22;35816;44.498;0.166;2022-07-10T02:15:57;19.70;76.00
45213;DHT22;35816;44.498;0.166;2022-07-10T02:18:23;19.70;76.80
45213;DHT22;35816;44.498;0.166;2022-07-10T02:20:49;19.60;76.90
45213;DHT22;35816;44.498;0.166;2022-07-10T02:23:14;19.50;76.90
45213;DHT22;35816;44.498;0.166;2022-07-10T02:25:40;19.50;76.80
45213;DHT22;35816;44.498;0.166;2022-07-10T02:28:07;19.50;76.90
45213;DHT22;35816;44.498;0.166;2022-07-10T02:30:33;19.40;77.10
45213;DHT22;35816;44.498;0.166;2022-07-10T02:32:58;19.40;78.10
45213;DHT22;35816;44.498;0.166;2022-07-10T02:35:24;19.40;79.00
45213;DHT22;35816;44.498;0.166;2022-07-10T02:37:50;19.30;79.80
45213;DHT22;35816;44.498;0.166;2022-07-10T02:40:16;19.20;80.20
45213;DHT22;35816;44.498;0.166;2022-07-10T02:42:41;19.10;80.70
45213;DHT22;35816;44.498;0.166;2022-07-10T02:45:07;19.00;81.90
45213;DHT22;35816;44.498;0.166;2022-07-10T02:47:33;19.00;82.40
45213;DHT22;35816;44.498;0.166;2022-07-10T02:49:59;18.90;84.10
45213;DHT22;35816;44.498;0.166;2022-07-10T06:19:59;20.00;94.60
45213;DHT22;35816;44.498;0.166;2022-07-10T06:22:31;20.10;94.40
45213;DHT22;35816;44.498;0.166;2022-07-10T06:24:59;20.20;94.60
45213;DHT22;35816;44.498;0.166;2022-07-10T06:27:25;20.30;94.30
45213;DHT22;35816;44.498;0.166;2022-07-10T06:29:51;20.30;94.30
45213;DHT22;35816;44.498;0.166;2022-07-10T06:32:16;20.40;94.20
45213;DHT22;35816;44.498;0.166;2022-07-10T06:34:42;20.50;94.40
45213;DHT22;35816;44.498;0.166;2022-07-10T06:37:07;20.50;94.30
45213;DHT22;35816;44.498;0.166;2022-07-10T06:39:33;20.60;94.10
45213;DHT22;35816;44.498;0.166;2022-07-10T06:42:04;20.70;94.10
45213;DHT22;35816;44.498;0.166;2022-07-10T06:44:30;20.80;93.90
45213;DHT22;35816;44.498;0.166;2022-07-10T06:46:56;20.80;93.80
45213;DHT22;35816;44.498;0.166;2022-07-10T06:49:41;20.90;93.60
45213;DHT22;35816;44.498;0.166;2022-07-10T06:52:06;21.00;93.30
45213;DHT22;35816;44.498;0.166;2022-07-10T06:54:32;21.10;93.00
45213;DHT22;35816;44.498;0.166;2022-07-10T06:56:58;21.30;92.80
45213;DHT22;35816;44.498;0.166;2022-07-10T06:59:24;21.40;91.90
45213;DHT22;35816;44.498;0.166;2022-07-10T07:01:50;21.60;91.40
45213;DHT22;35816;44.498;0.166;2022-07-10T07:04:17;21.70;91.20
45213;DHT22;35816;44.498;0.166;2022-07-10T07:06:44;21.90;90.70
45213;DHT22;35816;44.498;0.166;2022-07-10T07:09:09;22.00;89.30
45213;DHT22;35816;44.498;0.166;2022-07-10T07:11:38;22.20;88.00
45213;DHT22;35816;44.498;0.166;2022-07-10T07:14:04;22.40;86.80
45213;DHT22;35816;44.498;0.166;2022-07-10T07:16:29;22.50;84.90
45213;DHT22;35816;44.498;0.166;2022-07-10T07:19:12;22.70;82.80
45213;DHT22;35816;44.498;0.166;2022-07-10T07:21:45;22.80;80.80
45213;DHT22;35816;44.498;0.166;2022-07-10T07:24:36;23.00;79.30
45213;DHT22;35816;44.498;0.166;2022-07-10T07:27:03;23.10;78.30
45213;DHT22;35816;44.498;0.166;2022-07-10T07:29:29;23.20;76.90
45213;DHT22;35816;44.498;0.166;2022-07-10T07:31:55;23.30;75.20
45213;DHT22;35816;44.498;0.166;2022-07-10T07:34:21;23.40;74.50
45213;DHT22;35816;44.498;0.166;2022-07-10T07:36:46;23.50;72.80
45213;DHT22;35816;44.498;0.166;2022-07-10T07:39:12;23.60;72.00
45213;DHT22;35816;44.498;0.166;2022-07-10T07:41:38;23.70;70.20
45213;DHT22;35816;44.498;0.166;2022-07-10T07:44:03;23.80;69.80
45213;DHT22;35816;44.498;0.166;2022-07-10T07:46:29;23.90;69.30
45213;DHT22;35816;44.498;0.166;2022-07-10T07:48:54;23.90;68.70
45213;DHT22;35816;44.498;0.166;2022-07-10T07:51:21;24.00;68.30
45213;DHT22;35816;44.498;0.166;2022-07-10T07:53:46;24.10;67.80
45213;DHT22;35816;44.498;0.166;2022-07-10T07:56:12;24.20;67.10
45213;DHT22;35816;44.498;0.166;2022-07-10T07:58:37;24.30;66.70
45213;DHT22;35816;44.498;0.166;2022-07-10T08:01:03;24.40;66.40
45213;DHT22;35816;44.498;0.166;2022-07-10T08:03:29;24.50;66.10
45213;DHT22;35816;44.498;0.166;2022-07-10T08:05:54;24.60;65.40
45213;DHT22;35816;44.498;0.166;2022-07-10T08:08:20;24.70;65.20
45213;DHT22;35816;44.498;0.166;2022-07-10T08:10:45;24.80;64.80
45213;DHT22;35816;44.498;0.166;2022-07-10T08:13:11;24.90;64.10
45213;DHT22;35816;44.498;0.166;2022-07-10T08:15:37;25.00;63.60
45213;DHT22;35816;44.498;0.166;2022-07-10T08:18:02;25.10;63.20
45213;DHT22;35816;44.498;0.166;2022-07-10T08:20:32;25.20;62.80
45213;DHT22;35816;44.498;0.166;2022-07-10T08:22:58;25.30;62.60
45213;DHT22;35816;44.498;0.166;2022-07-10T08:25:24;25.40;62.10
45213;DHT22;35816;44.498;0.166;2022-07-10T08:27:49;25.50;61.90
45213;DHT22;35816;44.498;0.166;2022-07-10T08:30:15;25.60;61.40
45213;DHT22;35816;44.498;0.166;2022-07-10T08:32:41;25.60;61.00
45213;DHT22;35816;44.498;0.166;2022-07-10T08:35:07;25.70;60.70
45213;DHT22;35816;44.498;0.166;2022-07-10T08:37:39;25.80;60.40
45213;DHT22;35816;44.498;0.166;2022-07-10T08:40:05;25.90;60.00
45213;DHT22;35816;44.498;0.166;2022-07-10T08:42:32;26.00;59.80
45213;DHT22;35816;44.498;0.166;2022-07-10T08:44:57;26.20;59.70
45213;DHT22;35816;44.498;0.166;2022-07-10T08:47:23;26.20;59.00
45213;DHT22;35816;44.498;0.166;2022-07-10T08:49:51;26.30;58.90
45213;DHT22;35816;44.498;0.166;2022-07-10T08:54:52;26.50;58.20
45213;DHT22;35816;44.498;0.166;2022-07-10T08:57:17;26.50;57.70
45213;DHT22;35816;44.498;0.166;2022-07-10T08:59:43;26.60;57.60
45213;DHT22;35816;44.498;0.166;2022-07-10T09:02:09;26.60;57.30
45213;DHT22;35816;44.498;0.166;2022-07-10T09:04:35;26.70;57.10
45213;DHT22;35816;44.498;0.166;2022-07-10T09:07:02;26.80;56.60
45213;DHT22;35816;44.498;0.166;2022-07-10T09:09:29;26.80;56.30
45213;DHT22;35816;44.498;0.166;2022-07-10T09:11:57;26.90;56.00
45213;DHT22;35816;44.498;0.166;2022-07-10T09:14:25;27.00;55.80
45213;DHT22;35816;44.498;0.166;2022-07-10T09:16:51;27.00;56.10
45213;DHT22;35816;44.498;0.166;2022-07-10T09:19:23;27.10;55.40
45213;DHT22;35816;44.498;0.166;2022-07-10T09:21:53;27.20;55.30
45213;DHT22;35816;44.498;0.166;2022-07-10T09:24:20;27.30;55.10
45213;DHT22;35816;44.498;0.166;2022-07-10T09:26:59;27.40;54.70
45213;DHT22;35816;44.498;0.166;2022-07-10T09:29:26;27.50;54.50
45213;DHT22;35816;44.498;0.166;2022-07-10T09:31:52;27.70;54.10
45213;DHT22;35816;44.498;0.166;2022-07-10T09:34:34;27.80;53.90
45213;DHT22;35816;44.498;0.166;2022-07-10T09:39:50;28.10;53.20
45213;DHT22;35816;44.498;0.166;2022-07-10T09:42:27;28.20;52.60
45213;DHT22;35816;44.498;0.166;2022-07-10T09:44:53;28.40;52.30
45213;DHT22;35816;44.498;0.166;2022-07-10T09:47:53;28.50;51.30
45213;DHT22;35816;44.498;0.166;2022-07-10T09:52:49;28.70;50.40
45213;DHT22;35816;44.498;0.166;2022-07-10T09:55:15;28.80;49.80
45213;DHT22;35816;44.498;0.166;2022-07-10T09:57:42;29.00;49.70
45213;DHT22;35816;44.498;0.166;2022-07-10T10:00:09;29.10;49.20
45213;DHT22;35816;44.498;0.166;2022-07-10T10:02:36;29.30;49.10
45213;DHT22;35816;44.498;0.166;2022-07-10T10:05:03;29.40;48.60
45213;DHT22;35816;44.498;0.166;2022-07-10T10:07:29;29.60;48.20
45213;DHT22;35816;44.498;0.166;2022-07-10T10:09:54;29.70;47.70
45213;DHT22;35816;44.498;0.166;2022-07-10T10:12:31;29.90;47.10
45213;DHT22;35816;44.498;0.166;2022-07-10T10:14:58;30.10;46.70
45213;DHT22;35816;44.498;0.166;2022-07-10T10:17:25;30.30;46.10
45213;DHT22;35816;44.498;0.166;2022-07-10T10:19:52;30.40;45.90
45213;DHT22;35816;44.498;0.166;2022-07-10T10:22:40;30.60;45.50
45213;DHT22;35816;44.498;0.166;2022-07-10T10:25:05;30.80;45.10
45213;DHT22;35816;44.498;0.166;2022-07-10T10:27:32;30.90;45.00
45213;DHT22;35816;44.498;0.166;2022-07-10T10:29:59;31.10;44.70
45213;DHT22;35816;44.498;0.166;2022-07-10T10:32:27;31.20;44.20
45213;DHT22;35816;44.498;0.166;2022-07-10T10:34:53;31.40;44.20
45213;DHT22;35816;44.498;0.166;2022-07-10T10:37:37;31.60;43.60
45213;DHT22;35816;44.498;0.166;2022-07-10T10:40:04;31.80;43.30
45213;DHT22;35816;44.498;0.166;2022-07-10T10:42:34;32.00;42.30
45213;DHT22;35816;44.498;0.166;2022-07-10T10:47:57;32.50;41.90
45213;DHT22;35816;44.498;0.166;2022-07-10T10:58:39;33.50;40.70
45213;DHT22;35816;44.498;0.166;2022-07-10T11:01:05;33.70;40.50
45213;DHT22;35816;44.498;0.166;2022-07-10T11:03:31;33.90;40.40
45213;DHT22;35816;44.498;0.166;2022-07-10T11:05:56;34.00;39.60
45213;DHT22;35816;44.498;0.166;2022-07-10T11:08:35;34.10;39.10
45213;DHT22;35816;44.498;0.166;2022-07-10T11:11:01;34.20;39.00
45213;DHT22;35816;44.498;0.166;2022-07-10T11:13:26;34.40;38.80
45213;DHT22;35816;44.498;0.166;2022-07-10T11:15:52;34.50;38.50
45213;DHT22;35816;44.498;0.166;2022-07-10T11:18:19;34.60;38.30
45213;DHT22;35816;44.498;0.166;2022-07-10T11:20:49;34.60;38.30
45213;DHT22;35816;44.498;0.166;2022-07-10T11:26:03;35.10;38.00
45213;DHT22;35816;44.498;0.166;2022-07-10T11:31:08;35.30;37.80
45213;DHT22;35816;44.498;0.166;2022-07-10T11:33:42;35.70;38.00
45213;DHT22;35816;44.498;0.166;2022-07-10T11:36:10;36.30;38.10
45213;DHT22;35816;44.498;0.166;2022-07-10T11:38:36;37.10;38.00
45213;DHT22;35816;44.498;0.166;2022-07-10T11:41:01;37.80;37.50
45213;DHT22;35816;44.498;0.166;2022-07-10T11:43:27;38.40;37.00
45213;DHT22;35816;44.498;0.166;2022-07-10T11:45:53;39.10;36.60
45213;DHT22;35816;44.498;0.166;2022-07-10T11:48:26;39.90;36.60
45213;DHT22;35816;44.498;0.166;2022-07-10T11:50:52;41.00;36.30
45213;DHT22;35816;44.498;0.166;2022-07-10T11:53:24;41.80;35.60
45213;DHT22;35816;44.498;0.166;2022-07-10T11:55:50;42.40;34.10
45213;DHT22;35816;44.498;0.166;2022-07-10T11:58:17;42.70;32.80
45213;DHT22;35816;44.498;0.166;2022-07-10T12:00:43;42.90;32.30
45213;DHT22;35816;44.498;0.166;2022-07-10T12:03:21;43.50;31.90
45213;DHT22;35816;44.498;0.166;2022-07-10T12:05:48;43.90;31.80
45213;DHT22;35816;44.498;0.166;2022-07-10T12:08:15;44.40;31.70
45213;DHT22;35816;44.498;0.166;2022-07-10T12:10:41;44.90;31.00
45213;DHT22;35816;44.498;0.166;2022-07-10T12:13:11;45.20;29.80
45213;DHT22;35816;44.498;0.166;2022-07-10T12:15:38;45.30;29.80
45213;DHT22;35816;44.498;0.166;2022-07-10T12:18:05;45.40;29.60
45213;DHT22;35816;44.498;0.166;2022-07-10T12:20:37;45.90;29.80
45213;DHT22;35816;44.498;0.166;2022-07-10T12:23:09;46.50;29.50
45213;DHT22;35816;44.498;0.166;2022-07-10T12:25:56;47.00;29.30
45213;DHT22;35816;44.498;0.166;2022-07-10T12:28:22;47.30;29.30
45213;DHT22;35816;44.498;0.166;2022-07-10T12:30:48;47.60;29.20
45213;DHT22;35816;44.498;0.166;2022-07-10T12:33:15;47.90;29.10
45213;DHT22;35816;44.498;0.166;2022-07-10T12:35:59;47.90;29.10
45213;DHT22;35816;44.498;0.166;2022-07-10T12:38:25;48.10;28.90
45213;DHT22;35816;44.498;0.166;2022-07-10T12:41:13;48.10;29.00
45213;DHT22;35816;44.498;0.166;2022-07-10T12:43:39;48.30;29.00
45213;DHT22;35816;44.498;0.166;2022-07-10T12:46:13;48.60;28.80
45213;DHT22;35816;44.498;0.166;2022-07-10T12:48:43;48.70;28.90
45213;DHT22;35816;44.498;0.166;2022-07-10T12:51:20;48.40;28.90
45213;DHT22;35816;44.498;0.166;2022-07-10T12:53:45;48.60;29.00
45213;DHT22;35816;44.498;0.166;2022-07-10T12:58:54;48.80;28.70
45213;DHT22;35816;44.498;0.166;2022-07-10T13:01:20;48.80;28.70
45213;DHT22;35816;44.498;0.166;2022-07-10T13:03:46;48.70;28.90
45213;DHT22;35816;44.498;0.166;2022-07-10T13:06:28;48.90;29.00
45213;DHT22;35816;44.498;0.166;2022-07-10T13:08:53;49.00;28.80
45213;DHT22;35816;44.498;0.166;2022-07-10T13:11:19;49.10;28.80
45213;DHT22;35816;44.498;0.166;2022-07-10T13:13:45;49.20;28.60
45213;DHT22;35816;44.498;0.166;2022-07-10T13:16:10;49.50;28.50
45213;DHT22;35816;44.498;0.166;2022-07-10T13:18:36;49.60;28.40
45213;DHT22;35816;44.498;0.166;2022-07-10T13:21:01;49.80;28.20
45213;DHT22;35816;44.498;0.166;2022-07-10T13:23:29;49.80;28.20
45213;DHT22;35816;44.498;0.166;2022-07-10T13:25:55;49.80;28.30
45213;DHT22;35816;44.498;0.166;2022-07-10T13:28:21;49.80;28.20
45213;DHT22;35816;44.498;0.166;2022-07-10T13:30:47;49.80;28.00
45213;DHT22;35816;44.498;0.166;2022-07-10T13:33:14;49.90;27.70
45213;DHT22;35816;44.498;0.166;2022-07-10T13:35:40;49.80;27.80
45213;DHT22;35816;44.498;0.166;2022-07-10T13:38:06;49.60;27.70
45213;DHT22;35816;44.498;0.166;2022-07-10T13:40:33;49.70;27.40
45213;DHT22;35816;44.498;0.166;2022-07-10T13:42:58;49.80;27.60
45213;DHT22;35816;44.498;0.166;2022-07-10T13:45:24;50.10;27.70
45213;DHT22;35816;44.498;0.166;2022-07-10T13:47:55;50.20;27.50
45213;DHT22;35816;44.498;0.166;2022-07-10T13:50:24;50.20;27.40
45213;DHT22;35816;44.498;0.166;2022-07-10T13:52:50;50.40;27.30
45213;DHT22;35816;44.498;0.166;2022-07-10T13:55:16;50.50;27.20
45213;DHT22;35816;44.498;0.166;2022-07-10T13:57:42;50.50;27.20
45213;DHT22;35816;44.498;0.166;2022-07-10T14:00:08;50.20;27.20
45213;DHT22;35816;44.498;0.166;2022-07-10T14:02:33;50.00;27.10
45213;DHT22;35816;44.498;0.166;2022-07-10T14:04:59;49.60;27.20
45213;DHT22;35816;44.498;0.166;2022-07-10T14:07:25;49.40;27.30
45213;DHT22;35816;44.498;0.166;2022-07-10T14:09:50;49.40;27.40
45213;DHT22;35816;44.498;0.166;2022-07-10T14:12:16;49.50;27.40
45213;DHT22;35816;44.498;0.166;2022-07-10T14:14:41;49.70;27.30
45213;DHT22;35816;44.498;0.166;2022-07-10T14:17:07;49.70;27.30
45213;DHT22;35816;44.498;0.166;2022-07-10T14:19:33;49.70;27.50
45213;DHT22;35816;44.498;0.166;2022-07-10T14:21:58;49.60;27.40
45213;DHT22;35816;44.498;0.166;2022-07-10T14:24:24;49.60;27.40
45213;DHT22;35816;44.498;0.166;2022-07-10T14:26:50;49.60;27.40
45213;DHT22;35816;44.498;0.166;2022-07-10T14:29:17;49.40;27.40
45213;DHT22;35816;44.498;0.166;2022-07-10T14:31:43;49.20;27.50
45213;DHT22;35816;44.498;0.166;2022-07-10T14:34:13;49.20;27.50
45213;DHT22;35816;44.498;0.166;2022-07-10T14:36:38;49.50;27.60
45213;DHT22;35816;44.498;0.166;2022-07-10T14:39:04;49.60;27.30
45213;DHT22;35816;44.498;0.166;2022-07-10T14:41:31;49.70;27.40
45213;DHT22;35816;44.498;0.166;2022-07-10T14:43:57;49.70;27.40
45213;DHT22;35816;44.498;0.166;2022-07-10T14:46:23;49.50;27.20
45213;DHT22;35816;44.498;0.166;2022-07-10T14:48:49;49.40;27.30
45213;DHT22;35816;44.498;0.166;2022-07-10T14:51:15;49.40;27.40
45213;DHT22;35816;44.498;0.166;2022-07-10T14:53:40;49.10;27.30
45213;DHT22;35816;44.498;0.166;2022-07-10T14:56:07;49.00;27.40
45213;DHT22;35816;44.498;0.166;2022-07-10T14:58:33;49.00;27.40
45213;DHT22;35816;44.498;0.166;2022-07-10T15:00:58;49.30;27.30
45213;DHT22;35816;44.498;0.166;2022-07-10T15:03:25;49.20;27.30
45213;DHT22;35816;44.498;0.166;2022-07-10T15:05:50;49.10;27.20
45213;DHT22;35816;44.498;0.166;2022-07-10T15:08:21;48.90;27.30
45213;DHT22;35816;44.498;0.166;2022-07-10T15:10:48;48.70;27.30
45213;DHT22;35816;44.498;0.166;2022-07-10T15:13:33;48.60;27.30
45213;DHT22;35816;44.498;0.166;2022-07-10T15:15:59;48.40;27.20
45213;DHT22;35816;44.498;0.166;2022-07-10T15:18:26;48.40;27.30
45213;DHT22;35816;44.498;0.166;2022-07-10T15:21:12;48.20;27.30
45213;DHT22;35816;44.498;0.166;2022-07-10T15:23:38;48.00;27.40
45213;DHT22;35816;44.498;0.166;2022-07-10T15:26:04;48.00;27.40
45213;DHT22;35816;44.498;0.166;2022-07-10T15:28:30;48.00;27.50
45213;DHT22;35816;44.498;0.166;2022-07-10T15:30:55;48.10;27.50
45213;DHT22;35816;44.498;0.166;2022-07-10T15:33:21;48.10;27.50
45213;DHT22;35816;44.498;0.166;2022-07-10T15:35:47;48.20;27.50
45213;DHT22;35816;44.498;0.166;2022-07-10T15:38:12;48.20;27.50
45213;DHT22;35816;44.498;0.166;2022-07-10T15:40:39;48.20;27.40
45213;DHT22;35816;44.498;0.166;2022-07-10T15:43:04;48.10;27.40
45213;DHT22;35816;44.498;0.166;2022-07-10T15:45:30;48.10;27.30
45213;DHT22;35816;44.498;0.166;2022-07-10T15:47:56;47.70;27.40
45213;DHT22;35816;44.498;0.166;2022-07-10T15:50:22;47.50;27.60
45213;DHT22;35816;44.498;0.166;2022-07-10T15:52:47;47.50;27.50
45213;DHT22;35816;44.498;0.166;2022-07-10T15:55:13;47.50;27.60
45213;DHT22;35816;44.498;0.166;2022-07-10T15:57:39;47.30;27.70
45213;DHT22;35816;44.498;0.166;2022-07-10T16:00:05;47.20;27.70
45213;DHT22;35816;44.498;0.166;2022-07-10T16:02:31;47.00;27.60
45213;DHT22;35816;44.498;0.166;2022-07-10T16:04:56;46.80;27.40
45213;DHT22;35816;44.498;0.166;2022-07-10T16:07:22;46.60;27.40
45213;DHT22;35816;44.498;0.166;2022-07-10T16:09:47;46.50;27.50
45213;DHT22;35816;44.498;0.166;2022-07-10T16:12:14;46.30;27.70
45213;DHT22;35816;44.498;0.166;2022-07-10T16:14:40;46.30;27.70
45213;DHT22;35816;44.498;0.166;2022-07-10T16:17:05;46.10;27.90
45213;DHT22;35816;44.498;0.166;2022-07-10T16:19:33;45.80;28.10
45213;DHT22;35816;44.498;0.166;2022-07-10T16:22:01;45.40;28.10
45213;DHT22;35816;44.498;0.166;2022-07-10T16:24:27;45.20;28.30
45213;DHT22;35816;44.498;0.166;2022-07-10T16:27:24;44.90;28.50
45213;DHT22;35816;44.498;0.166;2022-07-10T16:30:06;44.90;28.60
45213;DHT22;35816;44.498;0.166;2022-07-10T16:33:01;44.80;28.70
45213;DHT22;35816;44.498;0.166;2022-07-10T16:38:55;44.80;28.90
45213;DHT22;35816;44.498;0.166;2022-07-10T16:42:06;44.80;29.00
45213;DHT22;35816;44.498;0.166;2022-07-10T16:45:27;44.80;29.00
45213;DHT22;35816;44.498;0.166;2022-07-10T16:47:56;44.70;29.00
45213;DHT22;35816;44.498;0.166;2022-07-10T16:50:22;44.50;29.10
45213;DHT22;35816;44.498;0.166;2022-07-10T16:52:48;44.30;29.20
45213;DHT22;35816;44.498;0.166;2022-07-10T16:55:14;44.20;29.20
45213;DHT22;35816;44.498;0.166;2022-07-10T16:57:40;43.80;29.40
45213;DHT22;35816;44.498;0.166;2022-07-10T17:00:06;43.30;29.60
45213;DHT22;35816;44.498;0.166;2022-07-10T17:02:32;43.00;29.80
45213;DHT22;35816;44.498;0.166;2022-07-10T17:04:57;42.80;30.00
45213;DHT22;35816;44.498;0.166;2022-07-10T17:07:23;42.50;30.10
45213;DHT22;35816;44.498;0.166;2022-07-10T17:09:48;42.20;30.30
45213;DHT22;35816;44.498;0.166;2022-07-10T17:12:14;42.00;30.60
45213;DHT22;35816;44.498;0.166;2022-07-10T17:14:41;41.60;30.80
45213;DHT22;35816;44.498;0.166;2022-07-10T17:17:07;41.30;31.10
45213;DHT22;35816;44.498;0.166;2022-07-10T17:19:32;41.10;31.30
45213;DHT22;35816;44.498;0.166;2022-07-10T17:21:58;41.00;31.50
45213;DHT22;35816;44.498;0.166;2022-07-10T17:24:23;40.90;31.50
45213;DHT22;35816;44.498;0.166;2022-07-10T17:26:49;40.70;31.60
45213;DHT22;35816;44.498;0.166;2022-07-10T17:29:15;40.60;31.80
45213;DHT22;35816;44.498;0.166;2022-07-10T17:31:41;40.40;32.00
45213;DHT22;35816;44.498;0.166;2022-07-10T17:34:06;40.50;32.10
45213;DHT22;35816;44.498;0.166;2022-07-10T17:36:32;40.40;32.20
45213;DHT22;35816;44.498;0.166;2022-07-10T17:38:58;40.10;32.40
45213;DHT22;35816;44.498;0.166;2022-07-10T17:41:23;39.80;32.60
45213;DHT22;35816;44.498;0.166;2022-07-10T17:43:49;39.60;32.80
45213;DHT22;35816;44.498;0.166;2022-07-10T17:46:15;39.40;32.90
45213;DHT22;35816;44.498;0.166;2022-07-10T17:48:40;39.20;33.10
45213;DHT22;35816;44.498;0.166;2022-07-10T17:51:06;38.90;33.30
45213;DHT22;35816;44.498;0.166;2022-07-10T17:53:32;38.60;33.50
45213;DHT22;35816;44.498;0.166;2022-07-10T17:55:58;38.50;33.60
45213;DHT22;35816;44.498;0.166;2022-07-10T17:58:23;38.50;33.70
45213;DHT22;35816;44.498;0.166;2022-07-10T18:00:49;38.30;33.70
45213;DHT22;35816;44.498;0.166;2022-07-10T18:03:14;38.10;33.80
45213;DHT22;35816;44.498;0.166;2022-07-10T18:05:41;37.90;33.90
45213;DHT22;35816;44.498;0.166;2022-07-10T18:08:11;37.80;34.20
45213;DHT22;35816;44.498;0.166;2022-07-10T18:10:38;37.60;34.40
45213;DHT22;35816;44.498;0.166;2022-07-10T18:13:04;37.40;34.60
45213;DHT22;35816;44.498;0.166;2022-07-10T18:15:30;37.10;34.90
45213;DHT22;35816;44.498;0.166;2022-07-10T18:17:56;36.90;35.10
45213;DHT22;35816;44.498;0.166;2022-07-10T18:20:22;36.70;35.10
45213;DHT22;35816;44.498;0.166;2022-07-10T18:22:47;36.50;35.20
45213;DHT22;35816;44.498;0.166;2022-07-10T18:25:15;36.40;35.40
45213;DHT22;35816;44.498;0.166;2022-07-10T18:27:41;36.20;35.50
45213;DHT22;35816;44.498;0.166;2022-07-10T18:30:06;36.00;35.70
45213;DHT22;35816;44.498;0.166;2022-07-10T18:32:32;35.80;35.80
45213;DHT22;35816;44.498;0.166;2022-07-10T18:35:16;35.70;36.10
45213;DHT22;35816;44.498;0.166;2022-07-10T18:37:42;35.50;36.20
45213;DHT22;35816;44.498;0.166;2022-07-10T18:40:08;35.20;36.30
45213;DHT22;35816;44.498;0.166;2022-07-10T18:42:33;35.00;36.70
45213;DHT22;35816;44.498;0.166;2022-07-10T18:44:59;34.70;37.30
45213;DHT22;35816;44.498;0.166;2022-07-10T18:47:25;34.40;37.50
45213;DHT22;35816;44.498;0.166;2022-07-10T18:49:50;34.10;37.70
45213;DHT22;35816;44.498;0.166;2022-07-10T18:52:16;34.00;37.90
45213;DHT22;35816;44.498;0.166;2022-07-10T18:54:41;33.70;38.30
45213;DHT22;35816;44.498;0.166;2022-07-10T18:57:07;33.50;38.60
45213;DHT22;35816;44.498;0.166;2022-07-10T18:59:34;33.20;38.90
45213;DHT22;35816;44.498;0.166;2022-07-10T19:02:00;33.00;39.20
45213;DHT22;35816;44.498;0.166;2022-07-10T19:04:25;32.70;39.30
45213;DHT22;35816;44.498;0.166;2022-07-10T19:06:51;32.50;39.70
45213;DHT22;35816;44.498;0.166;2022-07-10T19:09:16;32.20;39.90
45213;DHT22;35816;44.498;0.166;2022-07-10T19:11:42;32.00;40.30
45213;DHT22;35816;44.498;0.166;2022-07-10T19:14:08;31.80;40.50
45213;DHT22;35816;44.498;0.166;2022-07-10T19:16:34;31.60;40.90
45213;DHT22;35816;44.498;0.166;2022-07-10T19:19:00;31.40;41.30
45213;DHT22;35816;44.498;0.166;2022-07-10T19:21:26;31.20;41.60
45213;DHT22;35816;44.498;0.166;2022-07-10T19:23:51;31.10;41.60
45213;DHT22;35816;44.498;0.166;2022-07-10T19:26:17;31.00;41.70
45213;DHT22;35816;44.498;0.166;2022-07-10T19:28:43;30.80;42.00
45213;DHT22;35816;44.498;0.166;2022-07-10T19:31:09;30.70;42.10
45213;DHT22;35816;44.498;0.166;2022-07-10T19:33:35;30.50;42.20